Wetterdaten: Woche 06.06.16 - 12.06.16 (KW23)
Datum Zeit Temperatur Luftfeuchte Luftdruck Niederschlag Windrichtung Sonnenschein Solar Wind
06.06.2016 00:00 12,8 C 99 % 1016,4 hPa 0,0 l/m N 0,00 h 0 W/m 0,0 km/h (0 Bft)
06.06.2016 01:00 13,0 C 99 % 1016,4 hPa 0,0 l/m N 0,00 h 0 W/m 0,3 km/h (0 Bft)
06.06.2016 02:00 12,6 C 99 % 1016,3 hPa 0,0 l/m N 0,00 h 0 W/m 0,8 km/h (0 Bft)
06.06.2016 03:00 11,8 C 99 % 1016,1 hPa 0,0 l/m N 0,00 h 0 W/m 0,0 km/h (0 Bft)
06.06.2016 04:00 11,4 C 99 % 1016,2 hPa 0,2 l/m N 0,00 h 0 W/m 0,4 km/h (0 Bft)
06.06.2016 05:00 11,4 C 100 % 1016,6 hPa 0,0 l/m N 0,00 h 9 W/m 0,0 km/h (0 Bft)
06.06.2016 06:00 12,4 C 100 % 1016,8 hPa 0,0 l/m N 0,00 h 29 W/m 0,0 km/h (0 Bft)
06.06.2016 07:00 13,0 C 100 % 1017,2 hPa 0,0 l/m N 0,00 h 60 W/m 3,5 km/h (1 Bft)
06.06.2016 08:00 13,6 C 100 % 1017,4 hPa 0,0 l/m N 0,00 h 120 W/m 4,7 km/h (1 Bft)
06.06.2016 09:00 15,0 C 99 % 1017,4 hPa 0,0 l/m N 0,50 h 379 W/m 6,7 km/h (2 Bft)
06.06.2016 10:00 17,7 C 88 % 1017,4 hPa 0,0 l/m NO 0,83 h 642 W/m 10,5 km/h (2 Bft)
06.06.2016 11:00 19,8 C 77 % 1017,3 hPa 0,0 l/m NO 0,75 h 677 W/m 14,1 km/h (3 Bft)
06.06.2016 12:00 21,4 C 69 % 1017,1 hPa 0,0 l/m O-NO 0,58 h 607 W/m 17,8 km/h (3 Bft)
06.06.2016 13:00 22,6 C 63 % 1016,9 hPa 0,0 l/m O-NO 0,92 h 862 W/m 19,7 km/h (3 Bft)
06.06.2016 14:00 23,3 C 58 % 1016,4 hPa 0,0 l/m O 0,83 h 783 W/m 21,3 km/h (4 Bft)
06.06.2016 15:00 24,3 C 53 % 1016,1 hPa 0,0 l/m O 1,00 h 827 W/m 20,8 km/h (4 Bft)
06.06.2016 16:00 24,5 C 51 % 1015,7 hPa 0,0 l/m O-NO 0,83 h 620 W/m 18,1 km/h (3 Bft)
06.06.2016 17:00 24,7 C 50 % 1015,4 hPa 0,0 l/m O-SO 0,92 h 556 W/m 17,3 km/h (3 Bft)
06.06.2016 18:00 24,2 C 52 % 1015,3 hPa 0,0 l/m O-NO 0,83 h 329 W/m 15,2 km/h (3 Bft)
06.06.2016 19:00 23,4 C 54 % 1015,6 hPa 0,0 l/m O 0,92 h 200 W/m 11,4 km/h (2 Bft)
06.06.2016 20:00 21,9 C 61 % 1016,0 hPa 0,0 l/m O 0,00 h 26 W/m 3,2 km/h (1 Bft)
06.06.2016 21:00 18,2 C 79 % 1016,3 hPa 0,0 l/m N 0,08 h 7 W/m 0,0 km/h (0 Bft)
06.06.2016 22:00 16,5 C 82 % 1016,6 hPa 0,0 l/m N 0,00 h 0 W/m 0,8 km/h (0 Bft)
06.06.2016 23:00 15,9 C 86 % 1016,7 hPa 0,0 l/m N 0,00 h 0 W/m 1,3 km/h (1 Bft)
07.06.2016 00:00 15,1 C 88 % 1017,0 hPa 0,0 l/m N 0,00 h 0 W/m 1,5 km/h (1 Bft)
07.06.2016 01:00 14,7 C 90 % 1017,0 hPa 0,0 l/m O 0,00 h 0 W/m 2,5 km/h (1 Bft)
07.06.2016 02:00 14,3 C 92 % 1017,1 hPa 0,0 l/m O 0,00 h 0 W/m 2,1 km/h (1 Bft)
07.06.2016 03:00 13,3 C 94 % 1017,1 hPa 0,0 l/m N 0,00 h 0 W/m 0,9 km/h (0 Bft)
07.06.2016 04:00 12,7 C 97 % 1017,3 hPa 0,0 l/m N 0,00 h 0 W/m 0,8 km/h (0 Bft)
07.06.2016 05:00 12,5 C 97 % 1017,6 hPa 0,0 l/m O 0,00 h 10 W/m 1,9 km/h (1 Bft)
07.06.2016 06:00 13,0 C 96 % 1018,1 hPa 0,0 l/m N 0,00 h 62 W/m 0,0 km/h (0 Bft)
07.06.2016 07:00 15,1 C 90 % 1018,3 hPa 0,0 l/m N 0,92 h 209 W/m 0,8 km/h (0 Bft)
07.06.2016 08:00 17,0 C 84 % 1018,5 hPa 0,0 l/m N 1,00 h 374 W/m 1,6 km/h (1 Bft)
07.06.2016 09:00 18,6 C 82 % 1018,6 hPa 0,0 l/m S 1,00 h 538 W/m 5,6 km/h (1 Bft)
07.06.2016 10:00 20,5 C 77 % 1018,4 hPa 0,0 l/m S-SW 1,00 h 685 W/m 5,2 km/h (1 Bft)
07.06.2016 11:00 22,4 C 68 % 1018,5 hPa 0,0 l/m O-SO 1,00 h 806 W/m 8,0 km/h (2 Bft)
07.06.2016 12:00 23,8 C 61 % 1018,1 hPa 0,0 l/m O 0,92 h 828 W/m 9,5 km/h (2 Bft)
07.06.2016 13:00 25,2 C 51 % 1017,6 hPa 0,0 l/m O-NO 1,00 h 931 W/m 14,4 km/h (3 Bft)
07.06.2016 14:00 26,2 C 42 % 1017,2 hPa 0,0 l/m O-SO 1,00 h 911 W/m 14,6 km/h (3 Bft)
07.06.2016 15:00 26,8 C 41 % 1017,0 hPa 0,0 l/m O-SO 1,00 h 864 W/m 15,4 km/h (3 Bft)
07.06.2016 16:00 26,0 C 43 % 1016,6 hPa 0,0 l/m O 0,75 h 554 W/m 15,3 km/h (3 Bft)
07.06.2016 17:00 23,5 C 58 % 1016,3 hPa 0,0 l/m SW 0,33 h 270 W/m 15,7 km/h (3 Bft)
07.06.2016 18:00 21,5 C 66 % 1016,3 hPa 0,0 l/m W-SW 0,00 h 108 W/m 5,2 km/h (1 Bft)
07.06.2016 19:00 21,0 C 66 % 1016,5 hPa 0,0 l/m W-SW 0,00 h 52 W/m 3,6 km/h (1 Bft)
07.06.2016 20:00 20,2 C 70 % 1016,8 hPa 0,0 l/m N-NW 0,00 h 10 W/m 9,1 km/h (2 Bft)
07.06.2016 21:00 18,4 C 75 % 1017,4 hPa 0,0 l/m N-NW 0,00 h 0 W/m 11,8 km/h (2 Bft)
07.06.2016 22:00 16,9 C 85 % 1017,6 hPa 0,2 l/m N-NW 0,00 h 0 W/m 7,0 km/h (2 Bft)
07.06.2016 23:00 15,5 C 91 % 1017,4 hPa 0,0 l/m N-NW 0,00 h 0 W/m 2,5 km/h (1 Bft)
08.06.2016 00:00 15,1 C 93 % 1017,5 hPa 0,0 l/m N 0,00 h 0 W/m 0,7 km/h (0 Bft)
08.06.2016 01:00 15,1 C 92 % 1017,6 hPa 0,0 l/m W-NW 0,00 h 0 W/m 7,4 km/h (2 Bft)
08.06.2016 02:00 15,9 C 86 % 1017,7 hPa 0,8 l/m NW 0,00 h 0 W/m 4,7 km/h (1 Bft)
08.06.2016 03:00 14,8 C 95 % 1017,2 hPa 1,2 l/m W-SW 0,00 h 0 W/m 2,3 km/h (1 Bft)
08.06.2016 04:00 14,4 C 97 % 1017,1 hPa 0,6 l/m SW 0,00 h 0 W/m 7,9 km/h (2 Bft)
08.06.2016 05:00 14,2 C 98 % 1016,9 hPa 0,0 l/m N 0,00 h 7 W/m 0,4 km/h (0 Bft)
08.06.2016 06:00 14,3 C 98 % 1016,8 hPa 0,0 l/m N 0,00 h 30 W/m 0,0 km/h (0 Bft)
08.06.2016 07:00 15,0 C 96 % 1016,9 hPa 0,0 l/m N 0,00 h 61 W/m 0,1 km/h (0 Bft)
08.06.2016 08:00 15,2 C 96 % 1016,7 hPa 0,8 l/m SW 0,00 h 82 W/m 3,3 km/h (1 Bft)
08.06.2016 09:00 16,0 C 95 % 1016,4 hPa 0,0 l/m S-SO 0,00 h 208 W/m 6,0 km/h (2 Bft)
08.06.2016 10:00 16,5 C 93 % 1016,4 hPa 0,0 l/m S-SW 0,00 h 158 W/m 9,9 km/h (2 Bft)
08.06.2016 11:00 17,6 C 92 % 1016,1 hPa 0,0 l/m SW 0,08 h 254 W/m 14,2 km/h (3 Bft)
08.06.2016 12:00 16,1 C 95 % 1016,1 hPa 0,6 l/m W-SW 0,00 h 41 W/m 13,0 km/h (3 Bft)
08.06.2016 13:00 16,3 C 97 % 1015,8 hPa 0,6 l/m W-SW 0,00 h 288 W/m 14,8 km/h (3 Bft)
08.06.2016 14:00 16,8 C 95 % 1015,3 hPa 1,2 l/m SW 0,00 h 236 W/m 16,4 km/h (3 Bft)
08.06.2016 15:00 16,5 C 94 % 1015,1 hPa 1,0 l/m SW 0,00 h 120 W/m 13,6 km/h (3 Bft)
08.06.2016 16:00 16,0 C 96 % 1014,9 hPa 1,0 l/m W-SW 0,00 h 75 W/m 5,6 km/h (1 Bft)
08.06.2016 17:00 16,0 C 96 % 1014,7 hPa 1,0 l/m W 0,00 h 101 W/m 8,8 km/h (2 Bft)
08.06.2016 18:00 15,7 C 96 % 1014,4 hPa 8,6 l/m W 0,00 h 124 W/m 8,0 km/h (2 Bft)
08.06.2016 19:00 15,4 C 96 % 1014,6 hPa 0,0 l/m W 0,00 h 54 W/m 7,4 km/h (2 Bft)
08.06.2016 20:00 15,1 C 96 % 1014,6 hPa 0,0 l/m W 0,00 h 17 W/m 7,1 km/h (2 Bft)
08.06.2016 21:00 14,8 C 97 % 1014,8 hPa 0,0 l/m W 0,00 h 0 W/m 9,5 km/h (2 Bft)
08.06.2016 22:00 14,6 C 97 % 1014,9 hPa 0,8 l/m W 0,00 h 0 W/m 0,9 km/h (0 Bft)
08.06.2016 23:00 14,4 C 98 % 1014,8 hPa 0,6 l/m W 0,00 h 0 W/m 1,6 km/h (1 Bft)
09.06.2016 00:00 14,3 C 99 % 1014,9 hPa 0,2 l/m N 0,00 h 0 W/m 0,0 km/h (0 Bft)
09.06.2016 01:00 14,2 C 99 % 1014,7 hPa 0,0 l/m N 0,00 h 0 W/m 0,0 km/h (0 Bft)
09.06.2016 02:00 14,0 C 99 % 1014,5 hPa 0,0 l/m N 0,00 h 0 W/m 0,0 km/h (0 Bft)
09.06.2016 03:00 13,8 C 99 % 1014,3 hPa 0,0 l/m N 0,00 h 0 W/m 0,7 km/h (0 Bft)
09.06.2016 04:00 13,7 C 99 % 1014,2 hPa 0,2 l/m NW 0,00 h 0 W/m 7,0 km/h (2 Bft)
09.06.2016 05:00 13,4 C 99 % 1014,0 hPa 1,2 l/m NW 0,00 h 6 W/m 2,5 km/h (1 Bft)
09.06.2016 06:00 13,3 C 99 % 1013,8 hPa 0,2 l/m N 0,00 h 9 W/m 0,4 km/h (0 Bft)
09.06.2016 07:00 13,4 C 99 % 1013,9 hPa 1,0 l/m NW 0,00 h 35 W/m 6,6 km/h (2 Bft)
09.06.2016 08:00 13,5 C 99 % 1014,1 hPa 1,4 l/m N 0,00 h 46 W/m 9,7 km/h (2 Bft)
09.06.2016 09:00 13,6 C 99 % 1014,1 hPa 1,4 l/m N-NO 0,00 h 70 W/m 7,5 km/h (2 Bft)
09.06.2016 10:00 14,1 C 99 % 1014,2 hPa 0,6 l/m N-NO 0,00 h 118 W/m 7,9 km/h (2 Bft)
09.06.2016 11:00 14,3 C 96 % 1014,3 hPa 0,0 l/m N 0,00 h 173 W/m 14,6 km/h (3 Bft)
09.06.2016 12:00 15,5 C 88 % 1014,3 hPa 0,0 l/m N 0,00 h 318 W/m 15,0 km/h (3 Bft)
09.06.2016 13:00 16,3 C 84 % 1014,4 hPa 0,0 l/m N 0,00 h 346 W/m 12,3 km/h (3 Bft)
09.06.2016 14:00 16,8 C 80 % 1014,3 hPa 0,0 l/m N-NW 0,17 h 370 W/m 13,6 km/h (3 Bft)
09.06.2016 15:00 16,6 C 80 % 1014,2 hPa 0,0 l/m N-NW 0,17 h 314 W/m 10,9 km/h (2 Bft)
09.06.2016 16:00 18,4 C 68 % 1014,0 hPa 0,0 l/m N-NW 0,83 h 649 W/m 9,4 km/h (2 Bft)
09.06.2016 17:00 19,2 C 61 % 1013,6 hPa 0,0 l/m N 1,00 h 578 W/m 9,9 km/h (2 Bft)
09.06.2016 18:00 19,1 C 60 % 1013,4 hPa 0,0 l/m NO 0,92 h 411 W/m 9,0 km/h (2 Bft)
09.06.2016 19:00 18,2 C 62 % 1013,4 hPa 0,0 l/m O-NO 0,58 h 151 W/m 5,5 km/h (1 Bft)
09.06.2016 20:00 15,8 C 80 % 1013,3 hPa 0,0 l/m N 0,00 h 28 W/m 0,1 km/h (0 Bft)
09.06.2016 21:00 13,5 C 87 % 1013,7 hPa 0,0 l/m N 0,08 h 7 W/m 0,3 km/h (0 Bft)
09.06.2016 22:00 12,3 C 92 % 1014,0 hPa 0,0 l/m N 0,00 h 0 W/m 0,0 km/h (0 Bft)
09.06.2016 23:00 11,5 C 96 % 1013,8 hPa 0,0 l/m N 0,00 h 0 W/m 0,0 km/h (0 Bft)
10.06.2016 00:00 10,7 C 97 % 1013,6 hPa 0,0 l/m N 0,00 h 0 W/m 0,0 km/h (0 Bft)
10.06.2016 01:00 10,7 C 98 % 1013,3 hPa 0,0 l/m N 0,00 h 0 W/m 0,0 km/h (0 Bft)
10.06.2016 02:00 10,6 C 98 % 1012,9 hPa 0,0 l/m N 0,00 h 0 W/m 0,0 km/h (0 Bft)
10.06.2016 03:00 10,3 C 98 % 1012,7 hPa 0,0 l/m N 0,00 h 0 W/m 0,0 km/h (0 Bft)
10.06.2016 04:00 9,6 C 99 % 1012,5 hPa 0,0 l/m N 0,00 h 0 W/m 0,0 km/h (0 Bft)
10.06.2016 05:00 9,4 C 99 % 1012,4 hPa 0,0 l/m N 0,00 h 10 W/m 0,0 km/h (0 Bft)
10.06.2016 06:00 9,3 C 100 % 1012,2 hPa 0,0 l/m N 0,00 h 43 W/m 0,0 km/h (0 Bft)
10.06.2016 07:00 10,4 C 100 % 1012,0 hPa 0,0 l/m O-NO 0,25 h 164 W/m 2,0 km/h (1 Bft)
10.06.2016 08:00 13,0 C 94 % 1011,7 hPa 0,0 l/m O-NO 0,67 h 299 W/m 9,4 km/h (2 Bft)
10.06.2016 09:00 15,4 C 81 % 1011,7 hPa 0,0 l/m S-SW 1,00 h 513 W/m 9,5 km/h (2 Bft)
10.06.2016 10:00 17,7 C 69 % 1011,4 hPa 0,0 l/m S-SW 0,92 h 630 W/m 11,7 km/h (2 Bft)
10.06.2016 11:00 19,3 C 59 % 1011,0 hPa 0,0 l/m SW 0,92 h 771 W/m 11,2 km/h (2 Bft)
10.06.2016 12:00 19,7 C 59 % 1010,6 hPa 0,0 l/m NW 0,25 h 425 W/m 5,2 km/h (1 Bft)
10.06.2016 13:00 20,1 C 58 % 1010,2 hPa 0,0 l/m NW 0,33 h 461 W/m 3,3 km/h (1 Bft)
10.06.2016 14:00 21,0 C 56 % 1009,7 hPa 0,0 l/m S-SW 0,58 h 725 W/m 5,3 km/h (1 Bft)
10.06.2016 15:00 21,6 C 54 % 1009,1 hPa 0,0 l/m SW 0,67 h 662 W/m 5,3 km/h (1 Bft)
10.06.2016 16:00 22,8 C 49 % 1008,6 hPa 0,0 l/m NO 0,75 h 627 W/m 7,0 km/h (2 Bft)
10.06.2016 17:00 22,1 C 51 % 1008,2 hPa 0,0 l/m SO 0,58 h 405 W/m 4,0 km/h (1 Bft)
10.06.2016 18:00 22,4 C 50 % 1007,8 hPa 0,0 l/m N 0,92 h 373 W/m 1,7 km/h (1 Bft)
10.06.2016 19:00 21,8 C 53 % 1007,8 hPa 0,0 l/m O 0,75 h 157 W/m 4,7 km/h (1 Bft)
10.06.2016 20:00 20,0 C 64 % 1007,8 hPa 0,0 l/m O 0,00 h 23 W/m 5,5 km/h (1 Bft)
10.06.2016 21:00 16,6 C 81 % 1007,8 hPa 0,0 l/m N 0,00 h 7 W/m 0,1 km/h (0 Bft)
10.06.2016 22:00 15,2 C 86 % 1008,2 hPa 0,0 l/m N 0,00 h 0 W/m 0,3 km/h (0 Bft)
10.06.2016 23:00 15,3 C 86 % 1008,1 hPa 0,0 l/m N 0,00 h 0 W/m 0,9 km/h (0 Bft)
11.06.2016 00:00 15,4 C 84 % 1008,0 hPa 0,0 l/m NO 0,00 h 0 W/m 4,1 km/h (1 Bft)
11.06.2016 01:00 14,8 C 86 % 1007,7 hPa 0,0 l/m NO 0,00 h 0 W/m 6,3 km/h (2 Bft)
11.06.2016 02:00 14,2 C 87 % 1007,4 hPa 0,0 l/m N 0,00 h 0 W/m 0,0 km/h (0 Bft)
11.06.2016 03:00 13,5 C 90 % 1007,0 hPa 0,0 l/m N 0,00 h 0 W/m 0,0 km/h (0 Bft)
11.06.2016 04:00 13,6 C 91 % 1006,8 hPa 0,0 l/m N-NO 0,00 h 0 W/m 0,7 km/h (0 Bft)
11.06.2016 05:00 13,6 C 92 % 1007,3 hPa 0,0 l/m N 0,00 h 0 W/m 5,1 km/h (1 Bft)
11.06.2016 06:00 13,4 C 95 % 1007,7 hPa 1,2 l/m SW 0,00 h 18 W/m 2,7 km/h (1 Bft)
11.06.2016 07:00 13,6 C 97 % 1008,2 hPa 0,2 l/m SW 0,00 h 55 W/m 6,5 km/h (2 Bft)
11.06.2016 08:00 14,1 C 97 % 1008,7 hPa 1,6 l/m W-SW 0,00 h 38 W/m 6,7 km/h (2 Bft)
11.06.2016 09:00 14,5 C 98 % 1008,7 hPa 1,0 l/m SW 0,00 h 67 W/m 7,9 km/h (2 Bft)
11.06.2016 10:00 14,7 C 98 % 1008,8 hPa 0,0 l/m SW 0,00 h 127 W/m 11,4 km/h (2 Bft)
11.06.2016 11:00 14,9 C 96 % 1008,8 hPa 0,0 l/m SW 0,00 h 178 W/m 17,3 km/h (3 Bft)
11.06.2016 12:00 15,8 C 93 % 1008,6 hPa 0,0 l/m SW 0,00 h 300 W/m 16,0 km/h (3 Bft)
11.06.2016 13:00 17,1 C 86 % 1008,3 hPa 0,4 l/m SW 0,08 h 273 W/m 16,4 km/h (3 Bft)
11.06.2016 14:00 15,5 C 91 % 1008,0 hPa 1,6 l/m W-SW 0,08 h 235 W/m 16,9 km/h (3 Bft)
11.06.2016 15:00 17,4 C 83 % 1008,0 hPa 0,0 l/m W-SW 0,58 h 500 W/m 18,4 km/h (3 Bft)
11.06.2016 16:00 19,4 C 71 % 1007,8 hPa 0,0 l/m W-SW 0,83 h 653 W/m 21,3 km/h (4 Bft)
11.06.2016 17:00 19,1 C 71 % 1007,8 hPa 0,0 l/m W-SW 0,67 h 500 W/m 26,2 km/h (4 Bft)
11.06.2016 18:00 17,8 C 75 % 1008,2 hPa 0,0 l/m W-SW 0,17 h 183 W/m 24,3 km/h (4 Bft)
11.06.2016 19:00 17,5 C 74 % 1008,4 hPa 0,0 l/m W-SW 0,33 h 156 W/m 18,0 km/h (3 Bft)
11.06.2016 20:00 16,4 C 77 % 1008,8 hPa 0,0 l/m W 0,00 h 24 W/m 11,4 km/h (2 Bft)
11.06.2016 21:00 15,3 C 83 % 1009,1 hPa 0,0 l/m W-SW 0,00 h 6 W/m 12,9 km/h (3 Bft)
11.06.2016 22:00 15,0 C 85 % 1009,6 hPa 0,0 l/m W-SW 0,00 h 0 W/m 12,9 km/h (3 Bft)
11.06.2016 23:00 14,6 C 88 % 1009,6 hPa 0,2 l/m W-SW 0,00 h 0 W/m 15,8 km/h (3 Bft)
12.06.2016 00:00 14,4 C 91 % 1009,6 hPa 0,0 l/m SW 0,00 h 0 W/m 7,0 km/h (2 Bft)
12.06.2016 01:00 13,9 C 96 % 1009,5 hPa 0,0 l/m SW 0,00 h 0 W/m 3,6 km/h (1 Bft)
12.06.2016 02:00 13,7 C 97 % 1009,4 hPa 0,0 l/m SW 0,00 h 0 W/m 4,7 km/h (1 Bft)
12.06.2016 03:00 13,6 C 96 % 1009,3 hPa 0,2 l/m SW 0,00 h 0 W/m 9,4 km/h (2 Bft)
12.06.2016 04:00 13,3 C 96 % 1008,8 hPa 0,0 l/m SW 0,00 h 0 W/m 11,2 km/h (2 Bft)
12.06.2016 05:00 13,2 C 97 % 1008,9 hPa 0,0 l/m SW 0,00 h 6 W/m 14,6 km/h (3 Bft)
12.06.2016 06:00 13,2 C 97 % 1009,0 hPa 0,2 l/m SW 0,00 h 22 W/m 13,3 km/h (3 Bft)
12.06.2016 07:00 13,6 C 95 % 1009,0 hPa 0,0 l/m SW 0,00 h 68 W/m 14,1 km/h (3 Bft)
12.06.2016 08:00 14,4 C 93 % 1008,8 hPa 0,0 l/m W-SW 0,00 h 164 W/m 18,8 km/h (3 Bft)
12.06.2016 09:00 15,0 C 91 % 1008,6 hPa 0,0 l/m W-SW 0,00 h 197 W/m 20,1 km/h (4 Bft)
12.06.2016 10:00 15,7 C 87 % 1008,4 hPa 0,0 l/m W-SW 0,00 h 261 W/m 24,8 km/h (4 Bft)
12.06.2016 11:00 16,5 C 85 % 1008,1 hPa 0,0 l/m W-SW 0,00 h 388 W/m 24,0 km/h (4 Bft)
12.06.2016 12:00 16,0 C 87 % 1007,9 hPa 0,2 l/m W-SW 0,00 h 296 W/m 22,4 km/h (4 Bft)
12.06.2016 13:00 17,1 C 80 % 1007,7 hPa 0,0 l/m W 0,50 h 539 W/m 30,7 km/h (5 Bft)
12.06.2016 14:00 17,6 C 76 % 1007,5 hPa 0,0 l/m W-SW 0,50 h 510 W/m 27,6 km/h (4 Bft)
12.06.2016 15:00 18,4 C 74 % 1007,2 hPa 0,0 l/m W 0,50 h 528 W/m 27,1 km/h (4 Bft)
12.06.2016 16:00 17,2 C 79 % 1007,1 hPa 0,0 l/m W-SW 0,08 h 258 W/m 24,9 km/h (4 Bft)
12.06.2016 17:00 16,2 C 85 % 1007,3 hPa 0,0 l/m SW 0,00 h 139 W/m 20,4 km/h (4 Bft)
12.06.2016 18:00 15,3 C 90 % 1007,0 hPa 0,0 l/m W-SW 0,08 h 94 W/m 18,1 km/h (3 Bft)
12.06.2016 19:00 15,8 C 88 % 1006,9 hPa 0,0 l/m W-SW 0,08 h 100 W/m 16,8 km/h (3 Bft)
12.06.2016 20:00 15,3 C 87 % 1007,1 hPa 0,0 l/m W-SW 0,00 h 14 W/m 17,6 km/h (3 Bft)
12.06.2016 21:00 14,8 C 89 % 1007,3 hPa 0,0 l/m W-SW 0,00 h 5 W/m 12,1 km/h (2 Bft)
12.06.2016 22:00 14,3 C 89 % 1007,7 hPa 0,0 l/m W-SW 0,00 h 0 W/m 12,8 km/h (3 Bft)
12.06.2016 23:00 14,1 C 87 % 1007,8 hPa 0,0 l/m W-SW 0,00 h 0 W/m 12,0 km/h (2 Bft)
Min-Datum _ 10.06.16 07.06.16 11.06.16 - - - - 06.06.16
_ Min-Zeit 06:10 14:50 04:00 - - - - 00:00
Minimum _ 9,0 C 39 % 1006,6 hPa - - - - 0,0 km/h (0 Bft)
Max-Datum _ 07.06.16 06.06.16 07.06.16 08.06.16 - 06.06.16 11.06.16 12.06.16
_ Max-Zeit 15:40 04:40 09:15 18:45 - 09:20 13:35 13:30
Maximum _ 27,2 C 100 % 1018,7 hPa 8,6 l/m - 0,08 h 1176 W/m 37,0 km/h
W-SW (5 Bft)
Durchschnitt _ 16,2 C 84 % 1013,0 hPa #32,2 l/m W-SW #35:50 h 281 W/m 8,5 km/h (2 Bft)